createdAt,value
2022-10-12T00:01:27.109Z,8.61
2022-10-12T00:04:29.982Z,8.59
2022-10-12T00:07:32.818Z,8.58
2022-10-12T00:10:40.463Z,8.56
2022-10-12T00:13:43.320Z,8.55
2022-10-12T00:16:46.120Z,8.53
2022-10-12T00:19:50.392Z,8.51
2022-10-12T00:22:53.217Z,8.49
2022-10-12T00:25:56.119Z,8.48
2022-10-12T00:29:01.819Z,8.48
2022-10-12T00:32:05.897Z,8.47
2022-10-12T00:35:09.017Z,8.47
2022-10-12T00:38:11.981Z,8.47
2022-10-12T00:41:16.147Z,8.47
2022-10-12T00:44:52.053Z,8.46
2022-10-12T00:47:58.507Z,8.44
2022-10-12T00:51:03.165Z,8.44
2022-10-12T00:54:12.343Z,8.43
2022-10-12T00:57:18.215Z,8.42
2022-10-12T01:00:22.777Z,8.41
2022-10-12T01:03:25.647Z,8.40
2022-10-12T01:06:30.129Z,8.39
2022-10-12T01:09:33.491Z,8.38
2022-10-12T01:12:38.571Z,8.36
2022-10-12T01:16:01.601Z,8.35
2022-10-12T01:19:57.290Z,8.33
2022-10-12T01:23:15.632Z,8.30
2022-10-12T01:26:50.883Z,8.29
2022-10-12T01:30:14.154Z,8.27
2022-10-12T01:33:31.098Z,8.24
2022-10-12T01:36:41.578Z,8.21
2022-10-12T01:39:52.329Z,8.19
2022-10-12T01:42:56.994Z,8.17
2022-10-12T01:46:25.779Z,8.13
2022-10-12T01:49:32.882Z,8.11
2022-10-12T01:52:56.483Z,8.08
2022-10-12T01:56:10.735Z,8.05
2022-10-12T01:59:32.350Z,8.02
2022-10-12T02:02:59.218Z,7.99
2022-10-12T02:06:16.109Z,7.96
2022-10-12T02:09:26.340Z,7.95
2022-10-12T02:12:31.599Z,7.94
2022-10-12T02:15:38.469Z,7.93
2022-10-12T02:18:45.313Z,7.92
2022-10-12T02:21:49.525Z,7.91
2022-10-12T02:24:56.201Z,7.91
2022-10-12T02:28:17.230Z,7.90
2022-10-12T02:31:35.708Z,7.89
2022-10-12T02:34:46.447Z,7.87
2022-10-12T02:37:56.641Z,7.85
2022-10-12T02:41:14.419Z,7.83
2022-10-12T02:44:24.489Z,7.82
2022-10-12T02:47:30.224Z,7.80
2022-10-12T02:50:33.414Z,7.76
2022-10-12T02:53:36.741Z,7.74
2022-10-12T02:56:45.551Z,7.73
2022-10-12T02:59:48.374Z,7.70
2022-10-12T03:02:51.164Z,7.69
2022-10-12T03:05:54.121Z,7.68
2022-10-12T03:08:57.413Z,7.68
2022-10-12T03:12:00.238Z,7.66
2022-10-12T03:15:03.307Z,7.67
2022-10-12T03:18:06.127Z,7.65
2022-10-12T03:21:09.550Z,7.65
2022-10-12T03:24:12.386Z,7.64
2022-10-12T03:27:15.178Z,7.63
2022-10-12T03:30:18.054Z,7.62
2022-10-12T03:33:21.003Z,7.61
2022-10-12T03:36:23.818Z,7.58
2022-10-12T03:39:26.998Z,7.57
2022-10-12T03:42:29.780Z,7.55
2022-10-12T03:45:32.911Z,7.52
2022-10-12T03:48:35.817Z,7.52
2022-10-12T03:51:38.669Z,7.51
2022-10-12T03:54:41.465Z,7.49
2022-10-12T03:57:45.710Z,7.46
2022-10-12T04:00:55.501Z,7.43
2022-10-12T04:03:58.343Z,7.40
2022-10-12T04:07:01.163Z,7.38
2022-10-12T04:10:05.265Z,7.36
2022-10-12T04:13:08.155Z,7.34
2022-10-12T04:16:11.097Z,7.33
2022-10-12T04:19:14.149Z,7.31
2022-10-12T04:22:17.088Z,7.31
2022-10-12T04:25:19.970Z,7.28
2022-10-12T04:28:22.872Z,7.26
2022-10-12T04:31:25.748Z,7.26
2022-10-12T04:34:28.973Z,7.26
2022-10-12T04:37:32.113Z,7.26
2022-10-12T04:40:35.002Z,7.25
2022-10-12T04:43:37.774Z,7.25
2022-10-12T04:46:40.585Z,7.23
2022-10-12T04:49:43.492Z,7.21
2022-10-12T04:52:46.520Z,7.18
2022-10-12T04:55:49.468Z,7.14
2022-10-12T04:58:52.668Z,7.12
2022-10-12T05:01:55.633Z,7.12
2022-10-12T05:04:58.618Z,7.11
2022-10-12T05:08:02.369Z,7.11
2022-10-12T05:11:05.370Z,7.11
2022-10-12T05:14:09.299Z,7.09
2022-10-12T05:17:12.960Z,7.10
2022-10-12T05:20:15.976Z,7.09
2022-10-12T05:23:18.798Z,7.10
2022-10-12T05:26:22.257Z,7.11
2022-10-12T05:29:25.319Z,7.11
2022-10-12T05:32:28.335Z,7.11
2022-10-12T05:35:31.248Z,7.10
2022-10-12T05:38:34.571Z,7.11
2022-10-12T05:41:37.415Z,7.12
2022-10-12T05:44:40.254Z,7.13
2022-10-12T05:47:43.061Z,7.14
2022-10-12T05:50:45.935Z,7.15
2022-10-12T05:53:48.833Z,7.15
2022-10-12T05:56:51.737Z,7.16
2022-10-12T05:59:54.623Z,7.18
2022-10-12T06:02:57.833Z,7.19
2022-10-12T06:06:01.008Z,7.19
2022-10-12T06:09:03.875Z,7.20
2022-10-12T06:12:07.837Z,7.22
2022-10-12T06:15:11.192Z,7.25
2022-10-12T06:18:14.771Z,7.27
2022-10-12T06:21:34.475Z,7.29
2022-10-12T06:24:38.708Z,7.31
2022-10-12T06:27:44.960Z,7.33
2022-10-12T06:30:59.512Z,7.35
2022-10-12T06:34:02.431Z,7.37
2022-10-12T06:37:05.491Z,7.38
2022-10-12T06:40:08.983Z,7.40
2022-10-12T06:43:12.021Z,7.43
2022-10-12T06:46:14.927Z,7.46
2022-10-12T06:49:17.954Z,7.49
2022-10-12T06:52:21.071Z,7.53
2022-10-12T06:55:25.922Z,7.56
2022-10-12T06:58:28.802Z,7.61
2022-10-12T07:01:31.839Z,7.64
2022-10-12T07:04:34.826Z,7.69
2022-10-12T07:07:38.531Z,7.74
2022-10-12T07:10:41.387Z,7.79
2022-10-12T07:13:44.309Z,7.84
2022-10-12T07:16:52.868Z,7.90
2022-10-12T07:19:57.949Z,7.96
2022-10-12T07:23:00.810Z,8.02
2022-10-12T07:26:04.605Z,8.07
2022-10-12T07:29:07.840Z,8.14
2022-10-12T07:32:10.826Z,8.21
2022-10-12T07:35:13.790Z,8.28
2022-10-12T07:38:16.723Z,8.35
2022-10-12T07:41:19.707Z,8.42
2022-10-12T07:44:22.887Z,8.50
2022-10-12T07:47:25.771Z,8.58
2022-10-12T07:50:28.657Z,8.65
2022-10-12T07:53:34.197Z,8.72
2022-10-12T07:56:37.100Z,8.81
2022-10-12T07:59:39.984Z,8.87
2022-10-12T08:02:43.503Z,8.95
2022-10-12T08:05:46.419Z,9.02
2022-10-12T08:08:49.400Z,9.09
2022-10-12T08:11:52.282Z,9.18
2022-10-12T08:14:55.161Z,9.25
2022-10-12T08:17:57.981Z,9.33
2022-10-12T08:21:04.688Z,9.39
2022-10-12T08:24:08.183Z,9.46
2022-10-12T08:27:11.002Z,9.53
2022-10-12T08:30:14.366Z,9.60
2022-10-12T08:33:18.826Z,9.66
2022-10-12T08:36:38.837Z,9.77
2022-10-12T08:39:41.783Z,9.85
2022-10-12T08:42:56.599Z,9.95
2022-10-12T08:46:02.713Z,10.09
2022-10-12T08:49:24.072Z,10.21
2022-10-12T08:52:43.855Z,10.36
2022-10-12T08:55:47.106Z,10.51
2022-10-12T08:58:51.710Z,10.62
2022-10-12T09:02:13.465Z,10.73
2022-10-12T09:05:24.264Z,10.82
2022-10-12T09:09:10.313Z,10.92
2022-10-12T09:12:21.459Z,11.01
2022-10-12T09:15:35.166Z,11.08
2022-10-12T09:18:45.789Z,11.14
2022-10-12T09:21:49.832Z,11.18
2022-10-12T09:24:53.048Z,11.21
2022-10-12T09:28:13.228Z,11.24
2022-10-12T09:31:48.365Z,11.27
2022-10-12T09:34:51.118Z,11.28
2022-10-12T09:37:54.836Z,11.28
2022-10-12T09:40:57.744Z,11.29
2022-10-12T09:44:03.341Z,11.30
2022-10-12T09:47:24.056Z,11.31
2022-10-12T09:50:40.975Z,11.35
2022-10-12T09:53:48.944Z,11.38
2022-10-12T09:56:52.479Z,11.40
2022-10-12T09:59:55.849Z,11.40
2022-10-12T10:02:59.729Z,11.44
2022-10-12T10:06:04.507Z,11.47
2022-10-12T10:09:27.408Z,11.50
2022-10-12T10:12:30.491Z,11.56
2022-10-12T10:15:40.879Z,11.60
2022-10-12T10:18:48.799Z,11.71
2022-10-12T10:21:53.423Z,11.81
2022-10-12T10:25:00.429Z,11.93
2022-10-12T10:28:34.931Z,12.02
2022-10-12T10:31:38.013Z,12.26
2022-10-12T10:34:43.993Z,12.57
2022-10-12T10:37:50.611Z,12.86
2022-10-12T10:40:57.136Z,13.11
2022-10-12T10:44:00.043Z,13.32
2022-10-12T10:47:12.254Z,13.48
2022-10-12T10:50:38.264Z,13.51
2022-10-12T10:53:47.593Z,13.53
2022-10-12T10:56:53.694Z,13.55
2022-10-12T11:00:33.346Z,13.57
2022-10-12T11:04:00.110Z,13.53
2022-10-12T11:07:17.022Z,13.46
2022-10-12T11:10:33.306Z,13.39
2022-10-12T11:13:41.731Z,13.33
2022-10-12T11:16:54.348Z,13.28
2022-10-12T11:20:06.173Z,13.26
2022-10-12T11:23:38.782Z,13.22
2022-10-12T11:26:50.097Z,13.20
2022-10-12T11:30:09.204Z,13.17
2022-10-12T11:33:19.580Z,13.16
2022-10-12T11:36:26.661Z,13.16
2022-10-12T11:39:45.208Z,13.15
2022-10-12T11:42:49.897Z,13.14
2022-10-12T11:45:57.157Z,13.09
2022-10-12T11:49:06.613Z,13.05
2022-10-12T11:52:11.430Z,13.01
2022-10-12T11:55:50.605Z,12.99
2022-10-12T11:59:23.950Z,12.99
2022-10-12T12:02:44.414Z,13.00
2022-10-12T12:05:47.275Z,13.03
2022-10-12T12:08:51.686Z,13.08
2022-10-12T12:12:24.257Z,13.14
2022-10-12T12:15:27.123Z,13.17
2022-10-12T12:18:33.907Z,13.20
2022-10-12T12:22:14.218Z,13.24
2022-10-12T12:25:22.472Z,13.31
2022-10-12T12:28:25.427Z,13.38
2022-10-12T12:31:29.021Z,13.39
2022-10-12T12:34:31.829Z,13.38
2022-10-12T12:37:35.121Z,13.32
2022-10-12T12:40:40.299Z,13.22
2022-10-12T12:43:49.270Z,13.14
2022-10-12T12:46:52.141Z,13.08
2022-10-12T12:50:05.551Z,13.02
2022-10-12T12:53:20.144Z,12.97
2022-10-12T12:56:25.936Z,12.90
2022-10-12T12:59:42.371Z,12.85
2022-10-12T13:03:12.764Z,12.82
2022-10-12T13:06:42.563Z,12.79
2022-10-12T13:10:02.095Z,12.76
2022-10-12T13:13:23.219Z,12.74
2022-10-12T13:20:27.088Z,12.72
2022-10-12T13:23:30.136Z,12.71
2022-10-12T13:26:35.846Z,12.71
2022-10-12T13:29:51.375Z,12.71
2022-10-12T13:33:11.471Z,12.70
2022-10-12T13:36:23.429Z,12.67
2022-10-12T13:39:27.361Z,12.66
2022-10-12T13:42:34.550Z,12.65
2022-10-12T13:45:44.905Z,12.66
2022-10-12T13:48:59.875Z,12.66
2022-10-12T13:52:11.787Z,12.65
2022-10-12T13:55:16.105Z,12.65
2022-10-12T13:58:24.412Z,12.64
2022-10-12T14:01:28.125Z,12.64
2022-10-12T14:04:33.746Z,12.64
2022-10-12T14:07:39.476Z,12.64
2022-10-12T14:10:44.473Z,12.65
2022-10-12T14:13:47.886Z,12.65
2022-10-12T14:16:51.780Z,12.63
2022-10-12T14:19:56.412Z,12.63
2022-10-12T14:23:01.582Z,12.61
2022-10-12T14:26:04.486Z,12.60
2022-10-12T14:29:32.381Z,12.59
2022-10-12T14:32:35.261Z,12.58
2022-10-12T14:35:42.172Z,12.57
2022-10-12T14:38:47.363Z,12.57
2022-10-12T14:41:51.375Z,12.55
2022-10-12T14:44:54.928Z,12.54
2022-10-12T14:47:59.896Z,12.54
2022-10-12T14:51:02.816Z,12.52
2022-10-12T14:54:09.980Z,12.51
2022-10-12T14:57:15.195Z,12.51
2022-10-12T15:00:20.597Z,12.50
2022-10-12T15:03:24.051Z,12.49
2022-10-12T15:06:27.129Z,12.48
2022-10-12T15:09:29.967Z,12.47
2022-10-12T15:12:33.207Z,12.46
2022-10-12T15:15:46.903Z,12.44
2022-10-12T15:18:50.804Z,12.42
2022-10-12T15:21:53.922Z,12.41
2022-10-12T15:24:56.851Z,12.38
2022-10-12T15:27:59.733Z,12.37
2022-10-12T15:31:19.005Z,12.33
2022-10-12T15:34:22.420Z,12.30
2022-10-12T15:37:30.289Z,12.25
2022-10-12T15:40:34.509Z,12.21
2022-10-12T15:43:39.705Z,12.17
2022-10-12T15:46:46.201Z,12.12
2022-10-12T15:49:49.018Z,12.06
2022-10-12T15:52:52.675Z,12.01
2022-10-12T15:55:56.109Z,11.95
2022-10-12T15:58:59.332Z,11.88
2022-10-12T16:02:02.190Z,11.82
2022-10-12T16:05:14.442Z,11.77
2022-10-12T16:08:17.298Z,11.70
2022-10-12T16:11:20.406Z,11.63
2022-10-12T16:14:23.636Z,11.56
2022-10-12T16:17:28.101Z,11.51
2022-10-12T16:20:36.785Z,11.46
2022-10-12T16:23:40.908Z,11.40
2022-10-12T16:26:45.130Z,11.34
2022-10-12T16:29:48.111Z,11.29
2022-10-12T16:32:51.662Z,11.25
2022-10-12T16:35:54.448Z,11.21
2022-10-12T16:38:57.643Z,11.15
2022-10-12T16:42:00.570Z,11.11
2022-10-12T16:45:04.320Z,11.06
2022-10-12T16:48:07.363Z,11.01
2022-10-12T16:51:13.015Z,10.94
2022-10-12T16:54:16.649Z,10.90
2022-10-12T16:57:20.201Z,10.85
2022-10-12T17:00:26.020Z,10.79
2022-10-12T17:03:28.804Z,10.75
2022-10-12T17:06:31.700Z,10.71
2022-10-12T17:09:34.536Z,10.67
2022-10-12T17:12:37.571Z,10.64
2022-10-12T17:15:41.575Z,10.60
2022-10-12T17:18:44.419Z,10.56
2022-10-12T17:21:48.167Z,10.52
2022-10-12T17:24:51.116Z,10.48
2022-10-12T17:27:53.934Z,10.46
2022-10-12T17:30:58.128Z,10.44
2022-10-12T17:34:03.190Z,10.41
2022-10-12T17:37:07.288Z,10.38
2022-10-12T17:40:10.736Z,10.36
2022-10-12T17:43:13.527Z,10.32
2022-10-12T17:46:21.633Z,10.30
2022-10-12T17:49:27.290Z,10.26
2022-10-12T17:52:30.207Z,10.21
2022-10-12T17:55:48.109Z,10.19
2022-10-12T17:58:56.851Z,10.15
2022-10-12T18:02:00.117Z,10.12
2022-10-12T18:05:03.104Z,10.09
2022-10-12T18:08:06.011Z,10.06
2022-10-12T18:11:09.385Z,10.04
2022-10-12T18:14:13.401Z,10.02
2022-10-12T18:17:16.291Z,10.00
2022-10-12T18:20:19.170Z,9.99
2022-10-12T18:23:21.999Z,9.98
2022-10-12T18:26:25.045Z,9.97
2022-10-12T18:29:27.976Z,9.95
2022-10-12T18:32:30.772Z,9.93
2022-10-12T18:35:34.526Z,9.91
2022-10-12T18:38:37.656Z,9.89
2022-10-12T18:41:40.804Z,9.87
2022-10-12T18:44:44.936Z,9.84
2022-10-12T18:47:47.900Z,9.82
2022-10-12T18:50:52.586Z,9.80
2022-10-12T18:53:56.762Z,9.77
2022-10-12T18:57:07.307Z,9.74
2022-10-12T19:00:10.748Z,9.72
2022-10-12T19:03:13.654Z,9.68
2022-10-12T19:06:19.735Z,9.65
2022-10-12T19:09:23.645Z,9.62
2022-10-12T19:12:27.183Z,9.59
2022-10-12T19:15:30.600Z,9.57
2022-10-12T19:18:33.464Z,9.55
2022-10-12T19:21:36.250Z,9.53
2022-10-12T19:24:39.094Z,9.52
2022-10-12T19:27:41.999Z,9.50
2022-10-12T19:30:44.847Z,9.47
2022-10-12T19:33:47.887Z,9.45
2022-10-12T19:36:57.267Z,9.44
2022-10-12T19:40:07.759Z,9.39
2022-10-12T19:43:10.985Z,9.37
2022-10-12T19:46:14.006Z,9.35
2022-10-12T19:49:18.465Z,9.33
2022-10-12T19:52:21.454Z,9.31
2022-10-12T19:55:24.810Z,9.29
2022-10-12T19:58:28.295Z,9.25
2022-10-12T20:01:35.028Z,9.24
2022-10-12T20:04:37.977Z,9.21
2022-10-12T20:07:40.965Z,9.19
2022-10-12T20:10:43.801Z,9.16
2022-10-12T20:13:48.165Z,9.13
2022-10-12T20:16:51.319Z,9.11
2022-10-12T20:19:55.517Z,9.08
2022-10-12T20:22:58.406Z,9.06
2022-10-12T20:26:05.504Z,9.04
2022-10-12T20:29:08.786Z,9.00
2022-10-12T20:32:11.719Z,8.99
2022-10-12T20:35:14.577Z,8.97
2022-10-12T20:38:18.158Z,8.95
2022-10-12T20:41:21.962Z,8.94
2022-10-12T20:44:24.862Z,8.92
2022-10-12T20:47:30.905Z,8.90
2022-10-12T20:50:34.308Z,8.89
2022-10-12T20:53:38.012Z,8.87
2022-10-12T20:56:42.607Z,8.85
2022-10-12T20:59:48.870Z,8.82
2022-10-12T21:02:51.755Z,8.81
2022-10-12T21:05:54.532Z,8.79
2022-10-12T21:08:58.252Z,8.78
2022-10-12T21:12:02.917Z,8.78
2022-10-12T21:15:06.257Z,8.76
2022-10-12T21:18:09.198Z,8.74
2022-10-12T21:21:13.426Z,8.73
2022-10-12T21:24:16.666Z,8.71
2022-10-12T21:27:19.530Z,8.69
2022-10-12T21:30:22.348Z,8.68
2022-10-12T21:33:25.258Z,8.66
2022-10-12T21:36:30.003Z,8.64
2022-10-12T21:39:32.847Z,8.62
2022-10-12T21:42:35.688Z,8.61
2022-10-12T21:45:38.492Z,8.59
2022-10-12T21:48:41.396Z,8.57
2022-10-12T21:51:44.195Z,8.57
2022-10-12T21:54:47.226Z,8.55
2022-10-12T21:57:50.061Z,8.53
2022-10-12T22:00:52.948Z,8.52
2022-10-12T22:03:58.056Z,8.50
2022-10-12T22:07:00.899Z,8.50
2022-10-12T22:10:04.119Z,8.48
2022-10-12T22:13:08.248Z,8.47
2022-10-12T22:16:14.572Z,8.47
2022-10-12T22:19:21.540Z,8.46
2022-10-12T22:22:24.319Z,8.44
2022-10-12T22:25:27.254Z,8.43
2022-10-12T22:28:30.929Z,8.41
2022-10-12T22:31:34.803Z,8.39
2022-10-12T22:34:37.632Z,8.37
2022-10-12T22:37:40.487Z,8.35
2022-10-12T22:40:43.255Z,8.34
2022-10-12T22:43:47.276Z,8.33
2022-10-12T22:46:50.089Z,8.32
2022-10-12T22:49:52.897Z,8.30
2022-10-12T22:52:55.729Z,8.29
2022-10-12T22:56:00.849Z,8.25
2022-10-12T22:59:07.076Z,8.23
2022-10-12T23:02:09.978Z,8.20
2022-10-12T23:05:12.833Z,8.19
2022-10-12T23:08:15.829Z,8.18
2022-10-12T23:11:21.232Z,8.15
2022-10-12T23:14:24.192Z,8.12
2022-10-12T23:17:27.026Z,8.11
2022-10-12T23:20:30.226Z,8.09
2022-10-12T23:23:35.549Z,8.08
2022-10-12T23:26:38.407Z,8.06
2022-10-12T23:29:41.214Z,8.02
2022-10-12T23:32:44.492Z,8.00
2022-10-12T23:35:58.140Z,7.98
2022-10-12T23:39:04.589Z,7.94
2022-10-12T23:42:07.447Z,7.92
2022-10-12T23:45:10.404Z,7.89
2022-10-12T23:48:14.284Z,7.87
2022-10-12T23:51:18.104Z,7.86
2022-10-12T23:54:20.947Z,7.85
2022-10-12T23:57:45.763Z,7.85
